sensor_id;sensor_type;location;lat;lon;timestamp;pressure;altitude;pressure_sealevel;temperature;humidity
38716;BME280;24833;49.324;8.694;2022-09-01T00:00:05;100005.09;;;18.44;66.11
38716;BME280;24833;49.324;8.694;2022-09-01T00:02:33;99995.34;;;18.43;66.49
38716;BME280;24833;49.324;8.694;2022-09-01T00:05:01;99987.38;;;18.36;66.64
38716;BME280;24833;49.324;8.694;2022-09-01T00:07:30;99986.19;;;18.32;66.85
38716;BME280;24833;49.324;8.694;2022-09-01T00:09:59;99989.41;;;18.29;66.83
38716;BME280;24833;49.324;8.694;2022-09-01T00:12:27;99991.28;;;18.29;67.05
38716;BME280;24833;49.324;8.694;2022-09-01T00:14:55;99991.28;;;18.29;67.30
38716;BME280;24833;49.324;8.694;2022-09-01T00:17:22;99990.47;;;18.28;66.90
38716;BME280;24833;49.324;8.694;2022-09-01T00:19:49;99981.78;;;18.26;67.10
38716;BME280;24833;49.324;8.694;2022-09-01T00:22:16;99985.78;;;18.23;67.20
38716;BME280;24833;49.324;8.694;2022-09-01T00:24:43;99991.44;;;18.22;67.55
38716;BME280;24833;49.324;8.694;2022-09-01T00:27:10;99988.38;;;18.18;67.44
38716;BME280;24833;49.324;8.694;2022-09-01T00:29:39;99999.41;;;18.17;67.92
38716;BME280;24833;49.324;8.694;2022-09-01T00:32:10;99990.50;;;18.16;67.50
38716;BME280;24833;49.324;8.694;2022-09-01T00:34:38;99991.56;;;18.15;67.88
38716;BME280;24833;49.324;8.694;2022-09-01T00:37:06;99979.56;;;18.11;68.18
38716;BME280;24833;49.324;8.694;2022-09-01T00:39:34;99981.69;;;18.09;68.71
38716;BME280;24833;49.324;8.694;2022-09-01T00:42:01;99985.47;;;18.08;68.31
38716;BME280;24833;49.324;8.694;2022-09-01T00:44:28;99983.00;;;18.07;68.62
38716;BME280;24833;49.324;8.694;2022-09-01T00:46:58;99984.28;;;18.04;68.73
38716;BME280;24833;49.324;8.694;2022-09-01T00:49:35;99989.13;;;18.02;69.10
38716;BME280;24833;49.324;8.694;2022-09-01T00:52:16;99993.47;;;18.03;68.81
38716;BME280;24833;49.324;8.694;2022-09-01T00:54:49;99987.50;;;18.01;69.33
38716;BME280;24833;49.324;8.694;2022-09-01T00:57:18;99977.75;;;18.00;69.14
38716;BME280;24833;49.324;8.694;2022-09-01T00:59:54;99983.59;;;17.97;69.44
38716;BME280;24833;49.324;8.694;2022-09-01T01:02:22;99986.91;;;17.99;69.30
38716;BME280;24833;49.324;8.694;2022-09-01T01:04:49;99986.56;;;17.95;69.75
38716;BME280;24833;49.324;8.694;2022-09-01T01:07:19;99978.69;;;17.94;69.46
38716;BME280;24833;49.324;8.694;2022-09-01T01:09:49;99976.25;;;17.92;69.90
38716;BME280;24833;49.324;8.694;2022-09-01T01:12:17;99973.28;;;17.94;69.65
38716;BME280;24833;49.324;8.694;2022-09-01T01:14:48;99977.06;;;17.93;70.16
38716;BME280;24833;49.324;8.694;2022-09-01T01:17:21;99970.22;;;17.90;69.85
38716;BME280;24833;49.324;8.694;2022-09-01T01:19:52;99972.13;;;17.90;70.03
38716;BME280;24833;49.324;8.694;2022-09-01T01:25:45;99967.66;;;17.84;70.20
38716;BME280;24833;49.324;8.694;2022-09-01T01:28:21;99953.59;;;17.82;70.73
38716;BME280;24833;49.324;8.694;2022-09-01T01:31:05;99955.72;;;17.80;70.49
38716;BME280;24833;49.324;8.694;2022-09-01T01:33:51;99964.84;;;17.79;70.25
38716;BME280;24833;49.324;8.694;2022-09-01T01:36:31;99969.69;;;17.77;70.85
38716;BME280;24833;49.324;8.694;2022-09-01T01:39:14;99963.69;;;17.75;70.62
38716;BME280;24833;49.324;8.694;2022-09-01T01:41:44;99965.81;;;17.73;71.23
38716;BME280;24833;49.324;8.694;2022-09-01T01:44:19;99964.16;;;17.72;71.00
38716;BME280;24833;49.324;8.694;2022-09-01T01:46:51;99966.25;;;17.69;71.29
38716;BME280;24833;49.324;8.694;2022-09-01T01:49:22;99972.13;;;17.66;71.04
38716;BME280;24833;49.324;8.694;2022-09-01T01:51:52;99969.91;;;17.63;71.82
38716;BME280;24833;49.324;8.694;2022-09-01T01:54:25;99975.53;;;17.62;72.00
38716;BME280;24833;49.324;8.694;2022-09-01T01:57:01;99965.56;;;17.62;71.16
38716;BME280;24833;49.324;8.694;2022-09-01T01:59:31;99967.31;;;17.57;71.75
38716;BME280;24833;49.324;8.694;2022-09-01T02:01:59;99967.00;;;17.53;71.81
38716;BME280;24833;49.324;8.694;2022-09-01T02:04:30;99970.75;;;17.52;71.86
38716;BME280;24833;49.324;8.694;2022-09-01T02:07:07;99963.69;;;17.51;72.24
38716;BME280;24833;49.324;8.694;2022-09-01T02:09:37;99962.03;;;17.50;71.82
38716;BME280;24833;49.324;8.694;2022-09-01T02:12:07;99969.00;;;17.46;72.17
38716;BME280;24833;49.324;8.694;2022-09-01T02:14:35;99965.22;;;17.47;72.43
38716;BME280;24833;49.324;8.694;2022-09-01T02:17:02;99967.31;;;17.45;72.28
38716;BME280;24833;49.324;8.694;2022-09-01T02:19:33;99972.97;;;17.43;72.69
38716;BME280;24833;49.324;8.694;2022-09-01T02:22:04;99970.25;;;17.43;72.67
38716;BME280;24833;49.324;8.694;2022-09-01T02:24:31;99973.44;;;17.40;72.93
38716;BME280;24833;49.324;8.694;2022-09-01T02:26:58;99974.50;;;17.39;72.77
38716;BME280;24833;49.324;8.694;2022-09-01T02:29:28;99972.50;;;17.35;73.36
38716;BME280;24833;49.324;8.694;2022-09-01T02:31:59;99977.91;;;17.35;72.89
38716;BME280;24833;49.324;8.694;2022-09-01T02:34:28;99976.25;;;17.34;72.91
38716;BME280;24833;49.324;8.694;2022-09-01T02:36:55;99970.88;;;17.34;72.61
38716;BME280;24833;49.324;8.694;2022-09-01T02:39:27;99963.22;;;17.31;73.22
38716;BME280;24833;49.324;8.694;2022-09-01T02:41:55;99975.91;;;17.30;72.87
38716;BME280;24833;49.324;8.694;2022-09-01T02:44:27;99976.13;;;17.29;72.72
38716;BME280;24833;49.324;8.694;2022-09-01T02:46:55;99969.94;;;17.28;72.73
38716;BME280;24833;49.324;8.694;2022-09-01T02:49:24;99973.44;;;17.29;73.10
38716;BME280;24833;49.324;8.694;2022-09-01T02:51:57;99977.91;;;17.23;73.18
38716;BME280;24833;49.324;8.694;2022-09-01T02:54:30;99985.41;;;17.21;73.13
38716;BME280;24833;49.324;8.694;2022-09-01T02:56:58;99987.06;;;17.22;72.95
38716;BME280;24833;49.324;8.694;2022-09-01T02:59:28;99982.94;;;17.20;73.16
38716;BME280;24833;49.324;8.694;2022-09-01T03:01:58;99986.72;;;17.19;72.55
38716;BME280;24833;49.324;8.694;2022-09-01T03:04:25;99983.41;;;17.16;72.76
38716;BME280;24833;49.324;8.694;2022-09-01T03:06:53;99990.09;;;17.14;72.85
38716;BME280;24833;49.324;8.694;2022-09-01T03:09:21;99982.25;;;17.12;72.84
38716;BME280;24833;49.324;8.694;2022-09-01T03:11:51;99987.28;;;17.09;73.33
38716;BME280;24833;49.324;8.694;2022-09-01T03:14:20;99987.75;;;17.06;73.41
38716;BME280;24833;49.324;8.694;2022-09-01T03:16:47;99989.84;;;17.04;73.14
38716;BME280;24833;49.324;8.694;2022-09-01T03:19:15;99985.75;;;17.01;73.37
38716;BME280;24833;49.324;8.694;2022-09-01T03:21:45;99983.50;;;16.98;73.30
38716;BME280;24833;49.324;8.694;2022-09-01T03:24:17;99983.28;;;17.00;73.02
38716;BME280;24833;49.324;8.694;2022-09-01T03:26:46;99981.50;;;16.94;73.51
38716;BME280;24833;49.324;8.694;2022-09-01T03:29:17;99991.69;;;16.92;73.60
38716;BME280;24833;49.324;8.694;2022-09-01T03:31:45;99991.69;;;16.92;73.34
38716;BME280;24833;49.324;8.694;2022-09-01T03:34:12;99982.19;;;16.89;73.25
38716;BME280;24833;49.324;8.694;2022-09-01T03:36:49;99982.19;;;16.89;73.41
38716;BME280;24833;49.324;8.694;2022-09-01T03:39:26;99979.38;;;16.84;73.48
38716;BME280;24833;49.324;8.694;2022-09-01T03:41:53;99981.47;;;16.82;73.83
38716;BME280;24833;49.324;8.694;2022-09-01T03:44:22;99980.53;;;16.76;74.47
38716;BME280;24833;49.324;8.694;2022-09-01T03:46:49;99982.88;;;16.73;74.01
38716;BME280;24833;49.324;8.694;2022-09-01T03:49:17;99980.25;;;16.66;74.32
38716;BME280;24833;49.324;8.694;2022-09-01T03:51:55;99987.03;;;16.69;73.78
38716;BME280;24833;49.324;8.694;2022-09-01T03:54:23;99984.00;;;16.65;74.51
38716;BME280;24833;49.324;8.694;2022-09-01T03:56:55;99983.38;;;16.63;74.16
38716;BME280;24833;49.324;8.694;2022-09-01T03:59:25;99983.25;;;16.58;73.89
38716;BME280;24833;49.324;8.694;2022-09-01T04:01:53;99990.50;;;16.57;74.07
38716;BME280;24833;49.324;8.694;2022-09-01T04:04:20;99981.84;;;16.55;74.01
38716;BME280;24833;49.324;8.694;2022-09-01T04:06:48;99988.06;;;16.56;73.80
38716;BME280;24833;49.324;8.694;2022-09-01T04:09:15;99990.97;;;16.54;73.81
38716;BME280;24833;49.324;8.694;2022-09-01T04:11:44;99988.53;;;16.53;74.10
38716;BME280;24833;49.324;8.694;2022-09-01T04:14:14;99980.63;;;16.51;73.72
38716;BME280;24833;49.324;8.694;2022-09-01T04:16:43;99989.78;;;16.50;73.33
38716;BME280;24833;49.324;8.694;2022-09-01T04:19:35;99987.56;;;16.47;73.52
38716;BME280;24833;49.324;8.694;2022-09-01T04:22:04;99989.06;;;16.43;74.17
38716;BME280;24833;49.324;8.694;2022-09-01T04:24:43;99983.06;;;16.41;73.90
38716;BME280;24833;49.324;8.694;2022-09-01T04:27:14;99987.06;;;16.39;74.84
38716;BME280;24833;49.324;8.694;2022-09-01T04:29:42;99980.81;;;16.38;74.59
38716;BME280;24833;49.324;8.694;2022-09-01T04:32:10;99973.22;;;16.35;74.40
38716;BME280;24833;49.324;8.694;2022-09-01T04:34:41;99981.28;;;16.35;74.35
38716;BME280;24833;49.324;8.694;2022-09-01T04:37:19;99979.88;;;16.32;74.46
38716;BME280;24833;49.324;8.694;2022-09-01T04:39:53;99976.81;;;16.29;74.89
38716;BME280;24833;49.324;8.694;2022-09-01T04:42:26;99988.66;;;16.28;75.06
38716;BME280;24833;49.324;8.694;2022-09-01T04:44:55;99985.94;;;16.28;74.21
38716;BME280;24833;49.324;8.694;2022-09-01T04:47:24;99991.34;;;16.28;75.29
38716;BME280;24833;49.324;8.694;2022-09-01T04:50:05;99990.28;;;16.29;75.29
38716;BME280;24833;49.324;8.694;2022-09-01T04:52:41;99986.78;;;16.28;75.79
38716;BME280;24833;49.324;8.694;2022-09-01T04:55:17;99989.22;;;16.30;75.32
38716;BME280;24833;49.324;8.694;2022-09-01T04:57:48;99985.47;;;16.31;75.10
38716;BME280;24833;49.324;8.694;2022-09-01T05:00:19;99982.19;;;16.29;75.70
38716;BME280;24833;49.324;8.694;2022-09-01T05:03:00;99986.78;;;16.28;75.45
38716;BME280;24833;49.324;8.694;2022-09-01T05:05:49;99984.06;;;16.28;74.99
38716;BME280;24833;49.324;8.694;2022-09-01T05:08:19;99988.06;;;16.26;75.50
38716;BME280;24833;49.324;8.694;2022-09-01T05:10:53;99993.44;;;16.26;75.57
38716;BME280;24833;49.324;8.694;2022-09-01T05:13:40;99991.78;;;16.25;75.30
38716;BME280;24833;49.324;8.694;2022-09-01T05:16:12;99986.38;;;16.25;75.28
38716;BME280;24833;49.324;8.694;2022-09-01T05:18:44;99989.31;;;16.23;74.87
38716;BME280;24833;49.324;8.694;2022-09-01T05:21:15;99997.63;;;16.22;74.12
38716;BME280;24833;49.324;8.694;2022-09-01T05:23:44;99992.72;;;16.19;74.96
38716;BME280;24833;49.324;8.694;2022-09-01T05:26:22;99991.88;;;16.18;75.23
38716;BME280;24833;49.324;8.694;2022-09-01T05:28:55;99991.03;;;16.18;75.01
38716;BME280;24833;49.324;8.694;2022-09-01T05:31:24;99996.44;;;16.18;74.62
38716;BME280;24833;49.324;8.694;2022-09-01T05:33:54;99998.09;;;16.19;75.12
38716;BME280;24833;49.324;8.694;2022-09-01T05:36:24;100003.50;;;16.19;75.53
38716;BME280;24833;49.324;8.694;2022-09-01T05:38:53;100005.13;;;16.20;75.87
38716;BME280;24833;49.324;8.694;2022-09-01T05:41:20;99998.69;;;16.21;76.10
38716;BME280;24833;49.324;8.694;2022-09-01T05:43:50;100004.44;;;16.24;75.65
38716;BME280;24833;49.324;8.694;2022-09-01T05:46:26;100004.22;;;16.26;75.87
38716;BME280;24833;49.324;8.694;2022-09-01T05:48:57;100012.91;;;16.28;76.41
38716;BME280;24833;49.324;8.694;2022-09-01T05:51:27;100013.25;;;16.31;76.31
38716;BME280;24833;49.324;8.694;2022-09-01T05:54:21;100010.72;;;16.37;76.78
38716;BME280;24833;49.324;8.694;2022-09-01T05:56:49;100015.19;;;16.43;78.02
38716;BME280;24833;49.324;8.694;2022-09-01T05:59:20;100008.91;;;16.49;76.76
38716;BME280;24833;49.324;8.694;2022-09-01T06:01:55;100009.63;;;16.56;77.13
38716;BME280;24833;49.324;8.694;2022-09-01T06:04:25;100014.09;;;16.62;76.78
38716;BME280;24833;49.324;8.694;2022-09-01T06:06:56;100011.09;;;16.70;77.28
38716;BME280;24833;49.324;8.694;2022-09-01T06:09:46;100020.97;;;16.76;76.99
38716;BME280;24833;49.324;8.694;2022-09-01T06:12:16;100016.53;;;16.82;77.10
38716;BME280;24833;49.324;8.694;2022-09-01T06:14:46;100016.69;;;16.87;77.04
38716;BME280;24833;49.324;8.694;2022-09-01T06:17:16;100021.16;;;16.93;77.75
38716;BME280;24833;49.324;8.694;2022-09-01T06:19:48;100021.88;;;17.00;77.71
38716;BME280;24833;49.324;8.694;2022-09-01T06:22:15;100019.06;;;17.07;77.27
38716;BME280;24833;49.324;8.694;2022-09-01T06:24:42;100018.59;;;17.10;77.27
38716;BME280;24833;49.324;8.694;2022-09-01T06:27:12;100020.84;;;17.13;77.17
38716;BME280;24833;49.324;8.694;2022-09-01T06:29:44;100023.66;;;17.18;77.69
38716;BME280;24833;49.324;8.694;2022-09-01T06:32:11;100015.69;;;17.23;77.59
38716;BME280;24833;49.324;8.694;2022-09-01T06:34:43;100021.47;;;17.27;77.20
38716;BME280;24833;49.324;8.694;2022-09-01T06:37:11;100024.72;;;17.29;77.16
38716;BME280;24833;49.324;8.694;2022-09-01T06:39:42;100024.25;;;17.32;77.51
38716;BME280;24833;49.324;8.694;2022-09-01T06:42:10;100016.16;;;17.32;77.51
38716;BME280;24833;49.324;8.694;2022-09-01T06:44:47;100018.16;;;17.36;77.49
38716;BME280;24833;49.324;8.694;2022-09-01T06:47:14;100032.25;;;17.38;77.11
38716;BME280;24833;49.324;8.694;2022-09-01T06:49:41;100024.13;;;17.38;77.27
38716;BME280;24833;49.324;8.694;2022-09-01T06:52:14;100029.91;;;17.42;77.02
38716;BME280;24833;49.324;8.694;2022-09-01T06:54:42;100034.00;;;17.44;77.00
38716;BME280;24833;49.324;8.694;2022-09-01T06:57:11;100034.81;;;17.45;77.27
38716;BME280;24833;49.324;8.694;2022-09-01T06:59:58;100032.72;;;17.47;77.50
38716;BME280;24833;49.324;8.694;2022-09-01T07:02:28;100041.19;;;17.51;77.79
38716;BME280;24833;49.324;8.694;2022-09-01T07:05:16;100043.41;;;17.54;77.89
38716;BME280;24833;49.324;8.694;2022-09-01T07:08:10;100050.81;;;17.58;77.32
38716;BME280;24833;49.324;8.694;2022-09-01T07:11:18;100047.41;;;17.63;77.71
38716;BME280;24833;49.324;8.694;2022-09-01T07:14:10;100052.81;;;17.63;77.81
38716;BME280;24833;49.324;8.694;2022-09-01T07:16:45;100058.78;;;17.65;77.41
38716;BME280;24833;49.324;8.694;2022-09-01T07:19:32;100056.47;;;17.68;77.69
38716;BME280;24833;49.324;8.694;2022-09-01T07:22:16;100058.69;;;17.72;77.63
38716;BME280;24833;49.324;8.694;2022-09-01T07:25:03;100061.53;;;17.77;77.59
38716;BME280;24833;49.324;8.694;2022-09-01T07:28:05;100061.91;;;17.80;77.65
38716;BME280;24833;49.324;8.694;2022-09-01T07:30:32;100068.69;;;17.83;77.66
38716;BME280;24833;49.324;8.694;2022-09-01T07:33:06;100069.28;;;17.85;78.13
38716;BME280;24833;49.324;8.694;2022-09-01T07:35:58;100067.75;;;17.89;77.53
38716;BME280;24833;49.324;8.694;2022-09-01T07:38:46;100076.81;;;17.94;77.34
38716;BME280;24833;49.324;8.694;2022-09-01T07:41:42;100071.53;;;18.00;77.50
38716;BME280;24833;49.324;8.694;2022-09-01T07:44:56;100076.19;;;18.04;77.48
38716;BME280;24833;49.324;8.694;2022-09-01T07:47:56;100077.38;;;18.08;77.25
38716;BME280;24833;49.324;8.694;2022-09-01T07:50:25;100076.88;;;18.11;77.20
38716;BME280;24833;49.324;8.694;2022-09-01T07:53:08;100082.41;;;18.16;76.98
38716;BME280;24833;49.324;8.694;2022-09-01T07:55:52;100075.47;;;18.20;76.86
38716;BME280;24833;49.324;8.694;2022-09-01T07:58:24;100082.03;;;18.24;76.88
38716;BME280;24833;49.324;8.694;2022-09-01T08:00:58;100083.22;;;18.29;76.88
38716;BME280;24833;49.324;8.694;2022-09-01T08:03:29;100081.09;;;18.31;76.14
38716;BME280;24833;49.324;8.694;2022-09-01T08:06:07;100078.50;;;18.36;76.28
38716;BME280;24833;49.324;8.694;2022-09-01T08:08:37;100074.25;;;18.40;76.25
38716;BME280;24833;49.324;8.694;2022-09-01T08:11:07;100081.63;;;18.44;76.43
38716;BME280;24833;49.324;8.694;2022-09-01T08:13:36;100082.09;;;18.53;76.48
38716;BME280;24833;49.324;8.694;2022-09-01T08:16:10;100080.66;;;18.62;75.97
38716;BME280;24833;49.324;8.694;2022-09-01T08:18:47;100080.28;;;18.70;75.92
38716;BME280;24833;49.324;8.694;2022-09-01T08:21:26;100077.69;;;18.75;75.68
38716;BME280;24833;49.324;8.694;2022-09-01T08:24:01;100086.47;;;18.83;75.46
38716;BME280;24833;49.324;8.694;2022-09-01T08:26:31;100088.69;;;18.86;74.91
38716;BME280;24833;49.324;8.694;2022-09-01T08:29:00;100091.50;;;18.91;74.93
38716;BME280;24833;49.324;8.694;2022-09-01T08:31:33;100081.13;;;18.99;74.83
38716;BME280;24833;49.324;8.694;2022-09-01T08:34:03;100090.75;;;19.07;74.58
38716;BME280;24833;49.324;8.694;2022-09-01T08:36:33;100080.81;;;19.13;74.65
38716;BME280;24833;49.324;8.694;2022-09-01T08:39:01;100086.09;;;19.19;74.26
38716;BME280;24833;49.324;8.694;2022-09-01T08:44:53;100089.50;;;19.31;73.54
38716;BME280;24833;49.324;8.694;2022-09-01T08:47:24;100093.38;;;19.36;73.47
38716;BME280;24833;49.324;8.694;2022-09-01T08:50:12;100084.53;;;19.40;73.29
38716;BME280;24833;49.324;8.694;2022-09-01T08:53:23;100087.09;;;19.47;73.13
38716;BME280;24833;49.324;8.694;2022-09-01T08:55:56;100089.63;;;19.53;72.82
38716;BME280;24833;49.324;8.694;2022-09-01T08:58:27;100086.19;;;19.58;72.70
38716;BME280;24833;49.324;8.694;2022-09-01T09:01:54;100086.38;;;19.68;72.34
38716;BME280;24833;49.324;8.694;2022-09-01T09:09:57;100082.44;;;19.98;71.65
38716;BME280;24833;49.324;8.694;2022-09-01T09:12:55;100071.84;;;20.13;71.70
38716;BME280;24833;49.324;8.694;2022-09-01T09:15:58;100081.63;;;20.36;70.57
38716;BME280;24833;49.324;8.694;2022-09-01T09:18:54;100086.94;;;20.48;69.98
38716;BME280;24833;49.324;8.694;2022-09-01T09:21:36;100072.38;;;20.54;70.26
38716;BME280;24833;49.324;8.694;2022-09-01T09:27:29;100069.72;;;20.86;68.32
38716;BME280;24833;49.324;8.694;2022-09-01T09:30:01;100066.25;;;20.90;66.94
38716;BME280;24833;49.324;8.694;2022-09-01T09:35:44;100076.97;;;21.02;67.88
38716;BME280;24833;49.324;8.694;2022-09-01T09:38:20;100078.31;;;21.05;68.02
38716;BME280;24833;49.324;8.694;2022-09-01T09:41:16;100073.50;;;21.12;66.86
38716;BME280;24833;49.324;8.694;2022-09-01T09:44:05;100074.09;;;21.14;67.17
38716;BME280;24833;49.324;8.694;2022-09-01T09:46:41;100073.56;;;21.17;67.68
38716;BME280;24833;49.324;8.694;2022-09-01T09:49:26;100071.41;;;21.19;66.62
38716;BME280;24833;49.324;8.694;2022-09-01T09:55:03;100057.34;;;21.27;66.12
38716;BME280;24833;49.324;8.694;2022-09-01T09:57:32;100049.25;;;21.32;64.26
38716;BME280;24833;49.324;8.694;2022-09-01T10:03:06;100054.34;;;21.56;65.33
38716;BME280;24833;49.324;8.694;2022-09-01T10:05:46;100043.25;;;21.62;63.70
38716;BME280;24833;49.324;8.694;2022-09-01T10:08:43;100052.81;;;21.70;64.71
38716;BME280;24833;49.324;8.694;2022-09-01T10:11:27;100049.59;;;21.78;64.41
38716;BME280;24833;49.324;8.694;2022-09-01T10:14:03;100047.44;;;21.80;64.48
38716;BME280;24833;49.324;8.694;2022-09-01T10:16:31;100047.72;;;21.84;64.55
38716;BME280;24833;49.324;8.694;2022-09-01T10:19:04;100048.53;;;21.84;63.33
38716;BME280;24833;49.324;8.694;2022-09-01T10:21:43;100046.09;;;21.83;62.68
38716;BME280;24833;49.324;8.694;2022-09-01T10:24:33;100038.47;;;21.85;62.38
38716;BME280;24833;49.324;8.694;2022-09-01T10:27:26;100042.59;;;21.92;62.14
38716;BME280;24833;49.324;8.694;2022-09-01T10:30:12;100041.00;;;21.96;62.75
38716;BME280;24833;49.324;8.694;2022-09-01T10:32:56;100036.97;;;22.04;62.37
38716;BME280;24833;49.324;8.694;2022-09-01T10:35:48;100037.88;;;22.15;62.09
38716;BME280;24833;49.324;8.694;2022-09-01T10:38:24;100036.25;;;22.24;61.38
38716;BME280;24833;49.324;8.694;2022-09-01T10:40:58;100029.78;;;22.35;62.20
38716;BME280;24833;49.324;8.694;2022-09-01T10:43:46;100027.38;;;22.49;61.47
38716;BME280;24833;49.324;8.694;2022-09-01T10:48:55;100019.78;;;22.71;59.89
38716;BME280;24833;49.324;8.694;2022-09-01T10:54:05;100027.97;;;22.76;60.42
38716;BME280;24833;49.324;8.694;2022-09-01T10:56:48;100033.47;;;22.87;59.50
38716;BME280;24833;49.324;8.694;2022-09-01T11:02:12;100024.78;;;23.15;58.90
38716;BME280;24833;49.324;8.694;2022-09-01T11:07:31;100019.88;;;23.43;60.25
38716;BME280;24833;49.324;8.694;2022-09-01T11:10:32;100007.56;;;23.65;58.92
38716;BME280;24833;49.324;8.694;2022-09-01T11:13:31;100011.91;;;23.82;57.20
38716;BME280;24833;49.324;8.694;2022-09-01T11:16:30;100014.06;;;23.95;56.98
38716;BME280;24833;49.324;8.694;2022-09-01T11:19:37;100014.53;;;24.07;56.85
38716;BME280;24833;49.324;8.694;2022-09-01T11:25:34;100018.28;;;24.27;54.42
38716;BME280;24833;49.324;8.694;2022-09-01T11:30:59;100007.34;;;24.37;54.20
38716;BME280;24833;49.324;8.694;2022-09-01T11:34:02;100000.78;;;24.33;53.07
38716;BME280;24833;49.324;8.694;2022-09-01T11:36:34;99990.16;;;24.31;54.10
38716;BME280;24833;49.324;8.694;2022-09-01T11:42:11;99982.16;;;24.50;53.16
38716;BME280;24833;49.324;8.694;2022-09-01T11:45:06;99991.97;;;24.51;53.84
38716;BME280;24833;49.324;8.694;2022-09-01T11:47:57;99981.88;;;24.52;53.97
38716;BME280;24833;49.324;8.694;2022-09-01T11:50:34;99999.03;;;24.57;53.04
38716;BME280;24833;49.324;8.694;2022-09-01T11:53:09;99982.38;;;24.59;53.23
38716;BME280;24833;49.324;8.694;2022-09-01T11:55:46;99990.34;;;24.55;53.17
38716;BME280;24833;49.324;8.694;2022-09-01T12:01:30;99975.94;;;24.39;51.52
38716;BME280;24833;49.324;8.694;2022-09-01T12:04:19;99980.06;;;24.27;51.64
38716;BME280;24833;49.324;8.694;2022-09-01T12:07:09;99971.66;;;24.13;52.67
38716;BME280;24833;49.324;8.694;2022-09-01T12:09:45;99975.19;;;24.18;53.59
38716;BME280;24833;49.324;8.694;2022-09-01T12:12:36;99965.34;;;24.28;53.08
38716;BME280;24833;49.324;8.694;2022-09-01T12:15:21;99974.88;;;24.35;53.08
38716;BME280;24833;49.324;8.694;2022-09-01T12:17:49;99963.09;;;24.40;54.13
38716;BME280;24833;49.324;8.694;2022-09-01T12:20:33;99957.81;;;24.54;53.21
38716;BME280;24833;49.324;8.694;2022-09-01T12:23:01;99959.97;;;24.62;54.20
38716;BME280;24833;49.324;8.694;2022-09-01T12:25:33;99959.31;;;24.75;54.01
38716;BME280;24833;49.324;8.694;2022-09-01T12:28:03;99958.38;;;24.90;52.42
38716;BME280;24833;49.324;8.694;2022-09-01T12:30:33;99959.38;;;24.99;50.37
38716;BME280;24833;49.324;8.694;2022-09-01T12:33:10;99953.13;;;24.98;50.02
38716;BME280;24833;49.324;8.694;2022-09-01T12:38:55;99954.28;;;24.87;49.96
38716;BME280;24833;49.324;8.694;2022-09-01T12:41:37;99944.19;;;24.88;50.35
38716;BME280;24833;49.324;8.694;2022-09-01T12:44:29;99949.53;;;25.03;48.61
38716;BME280;24833;49.324;8.694;2022-09-01T12:47:09;99944.88;;;25.09;48.81
38716;BME280;24833;49.324;8.694;2022-09-01T12:49:43;99959.78;;;25.21;49.05
38716;BME280;24833;49.324;8.694;2022-09-01T12:52:21;99957.53;;;25.29;47.92
38716;BME280;24833;49.324;8.694;2022-09-01T12:55:15;99948.75;;;25.32;47.82
38716;BME280;24833;49.324;8.694;2022-09-01T12:58:08;99951.38;;;25.42;47.66
38716;BME280;24833;49.324;8.694;2022-09-01T13:00:54;99943.69;;;25.44;48.11
38716;BME280;24833;49.324;8.694;2022-09-01T13:03:22;99949.16;;;25.44;48.94
38716;BME280;24833;49.324;8.694;2022-09-01T13:05:54;99945.91;;;25.42;48.24
38716;BME280;24833;49.324;8.694;2022-09-01T13:08:31;99953.56;;;25.40;47.60
38716;BME280;24833;49.324;8.694;2022-09-01T13:11:10;99939.38;;;25.38;47.95
38716;BME280;24833;49.324;8.694;2022-09-01T13:13:40;99941.59;;;25.36;49.53
38716;BME280;24833;49.324;8.694;2022-09-01T13:16:08;99939.97;;;25.35;49.21
38716;BME280;24833;49.324;8.694;2022-09-01T13:18:42;99940.53;;;25.32;50.05
38716;BME280;24833;49.324;8.694;2022-09-01T13:21:31;99933.09;;;25.37;50.73
38716;BME280;24833;49.324;8.694;2022-09-01T13:23:58;99932.16;;;25.47;48.98
38716;BME280;24833;49.324;8.694;2022-09-01T13:26:27;99928.00;;;25.54;48.73
38716;BME280;24833;49.324;8.694;2022-09-01T13:28:58;99928.81;;;25.55;49.00
38716;BME280;24833;49.324;8.694;2022-09-01T13:31:25;99926.59;;;25.57;48.31
38716;BME280;24833;49.324;8.694;2022-09-01T13:33:57;99917.28;;;25.58;47.91
38716;BME280;24833;49.324;8.694;2022-09-01T13:36:44;99920.06;;;25.53;48.46
38716;BME280;24833;49.324;8.694;2022-09-01T13:39:18;99915.75;;;25.47;48.32
38716;BME280;24833;49.324;8.694;2022-09-01T13:41:47;99925.06;;;25.46;49.28
38716;BME280;24833;49.324;8.694;2022-09-01T13:44:16;99924.16;;;25.56;49.42
38716;BME280;24833;49.324;8.694;2022-09-01T13:46:45;99915.28;;;25.64;48.36
38716;BME280;24833;49.324;8.694;2022-09-01T13:49:32;99913.88;;;25.66;47.93
38716;BME280;24833;49.324;8.694;2022-09-01T13:52:09;99908.94;;;25.68;48.09
38716;BME280;24833;49.324;8.694;2022-09-01T13:54:36;99914.13;;;25.70;47.93
38716;BME280;24833;49.324;8.694;2022-09-01T13:57:04;99909.34;;;25.80;47.97
38716;BME280;24833;49.324;8.694;2022-09-01T13:59:31;99913.09;;;25.90;46.75
38716;BME280;24833;49.324;8.694;2022-09-01T14:01:58;99915.53;;;25.91;46.96
38716;BME280;24833;49.324;8.694;2022-09-01T14:04:27;99908.63;;;25.94;46.97
38716;BME280;24833;49.324;8.694;2022-09-01T14:06:54;99902.59;;;25.97;47.26
38716;BME280;24833;49.324;8.694;2022-09-01T14:09:22;99904.97;;;26.03;47.06
38716;BME280;24833;49.324;8.694;2022-09-01T14:11:52;99897.56;;;26.04;46.50
38716;BME280;24833;49.324;8.694;2022-09-01T14:14:20;99901.34;;;26.08;45.76
38716;BME280;24833;49.324;8.694;2022-09-01T14:16:48;99892.53;;;26.11;46.22
38716;BME280;24833;49.324;8.694;2022-09-01T14:19:15;99896.22;;;26.20;45.60
38716;BME280;24833;49.324;8.694;2022-09-01T14:21:42;99895.59;;;26.28;45.30
38716;BME280;24833;49.324;8.694;2022-09-01T14:24:11;99897.22;;;26.29;45.23
38716;BME280;24833;49.324;8.694;2022-09-01T14:26:40;99888.44;;;26.27;45.61